Randsburg, California
Current Conditions -  °F | °C
As of 9:56 PM on Wednesday 22 Oct 2014 (Local Time) from KNID Reporting Station
Clear Clear  
Wind Chill: 65°   Ceiling: Unl
Heat Index: 65°   Visibility: 10mi
Dew Point: 29°   Wind: 8mph
Humidity: 26%   Direction: 200°SSW
Pressure: 30.03"   Gusts: NA
Location:  35.37°N, 117.66°W
Report Text: KNID 230456Z 20007KT 10SM CLR 18/M02 A3003 RMK AO2 SLP157 T01831017 $
Loading
Personal Weather Stations






























Interactive Weather Map
Tropical Storm Tracking
New forecast layout! Learn more

10-Day Weather Forecast

Advertisements
Track Severe Weather on mobile